createdAt,value
2023-01-19T00:01:36.845Z,7.76
2023-01-19T00:04:07.349Z,7.73
2023-01-19T00:06:37.463Z,7.71
2023-01-19T00:09:06.788Z,7.70
2023-01-19T00:11:36.747Z,7.68
2023-01-19T00:14:06.326Z,7.66
2023-01-19T00:16:36.297Z,7.65
2023-01-19T00:19:05.853Z,7.63
2023-01-19T00:21:35.992Z,7.63
2023-01-19T00:24:06.160Z,7.69
2023-01-19T00:26:36.311Z,7.76
2023-01-19T00:29:08.127Z,7.84
2023-01-19T00:31:38.094Z,7.90
2023-01-19T00:34:08.352Z,7.95
2023-01-19T00:36:38.023Z,8.01
2023-01-19T00:39:08.240Z,8.06
2023-01-19T00:41:56.149Z,8.09
2023-01-19T00:44:26.292Z,8.11
2023-01-19T00:46:56.068Z,8.12
2023-01-19T00:49:25.846Z,8.13
2023-01-19T00:51:55.687Z,8.13
2023-01-19T00:54:26.318Z,8.14
2023-01-19T00:56:57.057Z,8.17
2023-01-19T00:59:31.111Z,8.18
2023-01-19T01:02:01.117Z,8.17
2023-01-19T01:04:30.591Z,8.15
2023-01-19T01:07:01.140Z,8.11
2023-01-19T01:09:32.568Z,8.05
2023-01-19T01:12:02.130Z,8.01
2023-01-19T01:14:32.014Z,7.98
2023-01-19T01:17:01.852Z,7.92
2023-01-19T01:19:33.219Z,7.88
2023-01-19T01:22:03.575Z,7.83
2023-01-19T01:24:33.772Z,7.79
2023-01-19T01:27:03.815Z,7.77
2023-01-19T01:29:35.984Z,7.74
2023-01-19T01:32:07.307Z,7.70
2023-01-19T01:34:38.210Z,7.66
2023-01-19T01:37:09.907Z,7.62
2023-01-19T01:39:39.685Z,7.58
2023-01-19T01:42:19.392Z,7.54
2023-01-19T01:44:57.951Z,7.48
2023-01-19T01:47:29.615Z,7.43
2023-01-19T01:50:19.206Z,7.40
2023-01-19T01:53:07.487Z,7.39
2023-01-19T01:55:41.543Z,7.36
2023-01-19T01:58:14.311Z,7.38
2023-01-19T02:01:05.685Z,7.35
2023-01-19T02:03:35.707Z,7.35
2023-01-19T02:06:07.765Z,7.35
2023-01-19T02:09:08.161Z,7.31
2023-01-19T02:11:58.079Z,7.25
2023-01-19T02:14:30.089Z,7.18
2023-01-19T02:17:02.259Z,7.12
2023-01-19T02:19:42.974Z,7.10
2023-01-19T02:22:41.323Z,7.10
2023-01-19T02:25:11.155Z,7.10
2023-01-19T02:27:42.819Z,7.08
2023-01-19T02:30:14.605Z,7.07
2023-01-19T02:32:45.632Z,7.06
2023-01-19T02:35:16.915Z,7.04
2023-01-19T02:37:48.608Z,7.01
2023-01-19T02:40:21.593Z,6.99
2023-01-19T02:42:53.759Z,6.97
2023-01-19T02:45:25.242Z,6.94
2023-01-19T02:47:57.351Z,6.89
2023-01-19T02:50:42.347Z,6.83
2023-01-19T02:53:36.893Z,6.79
2023-01-19T02:56:30.165Z,6.73
2023-01-19T02:59:14.970Z,6.66
2023-01-19T03:02:06.626Z,6.62
2023-01-19T03:04:58.475Z,6.60
2023-01-19T03:07:29.434Z,6.61
2023-01-19T03:10:16.539Z,6.67
2023-01-19T03:12:53.899Z,6.72
2023-01-19T03:15:35.879Z,6.78
2023-01-19T03:18:10.078Z,6.84
2023-01-19T03:20:42.269Z,6.88
2023-01-19T03:23:15.935Z,6.92
2023-01-19T03:25:54.728Z,6.93
2023-01-19T03:28:28.339Z,6.96
2023-01-19T03:31:08.748Z,7.00
2023-01-19T03:33:44.080Z,7.02
2023-01-19T03:36:32.235Z,7.04
2023-01-19T03:39:05.798Z,7.04
2023-01-19T03:41:40.623Z,7.05
2023-01-19T03:44:12.805Z,7.05
2023-01-19T03:46:43.260Z,7.05
2023-01-19T03:49:13.056Z,7.04
2023-01-19T03:51:43.735Z,7.01
2023-01-19T03:54:14.072Z,6.95
2023-01-19T03:56:45.219Z,6.89
2023-01-19T03:59:18.151Z,6.85
2023-01-19T04:01:49.162Z,6.81
2023-01-19T04:04:20.171Z,6.79
2023-01-19T04:06:51.785Z,6.75
2023-01-19T04:09:22.547Z,6.74
2023-01-19T04:11:53.408Z,6.74
2023-01-19T04:14:23.248Z,6.72
2023-01-19T04:16:53.213Z,6.69
2023-01-19T04:19:22.602Z,6.67
2023-01-19T04:21:53.035Z,6.66
2023-01-19T04:24:22.840Z,6.68
2023-01-19T04:26:54.233Z,6.72
2023-01-19T04:29:25.083Z,6.78
2023-01-19T04:31:54.805Z,6.84
2023-01-19T04:34:24.813Z,6.91
2023-01-19T04:36:56.009Z,6.98
2023-01-19T04:39:26.231Z,7.02
2023-01-19T04:41:56.617Z,7.06
2023-01-19T04:44:26.680Z,7.08
2023-01-19T04:46:56.452Z,7.13
2023-01-19T04:49:25.953Z,7.18
2023-01-19T04:51:56.311Z,7.23
2023-01-19T04:54:26.318Z,7.29
2023-01-19T04:56:55.590Z,7.35
2023-01-19T04:59:25.132Z,7.37
2023-01-19T05:01:55.287Z,7.38
2023-01-19T05:04:26.159Z,7.41
2023-01-19T05:06:55.132Z,7.41
2023-01-19T05:09:24.255Z,7.39
2023-01-19T05:11:55.124Z,7.39
2023-01-19T05:14:24.978Z,7.37
2023-01-19T05:16:54.516Z,7.35
2023-01-19T05:19:24.096Z,7.33
2023-01-19T05:21:53.091Z,7.32
2023-01-19T05:24:23.184Z,7.35
2023-01-19T05:26:52.307Z,7.39
2023-01-19T05:29:21.613Z,7.42
2023-01-19T05:31:51.232Z,7.50
2023-01-19T05:34:20.861Z,7.60
2023-01-19T05:36:50.533Z,7.65
2023-01-19T05:39:20.903Z,7.66
2023-01-19T05:41:50.777Z,7.66
2023-01-19T05:44:20.428Z,7.67
2023-01-19T05:46:50.054Z,7.69
2023-01-19T05:49:19.901Z,7.73
2023-01-19T05:51:49.310Z,7.74
2023-01-19T05:54:19.881Z,7.76
2023-01-19T05:56:49.353Z,7.84
2023-01-19T05:59:24.776Z,7.90
2023-01-19T06:01:54.842Z,8.00
2023-01-19T06:04:23.787Z,8.04
2023-01-19T06:06:52.792Z,8.08
2023-01-19T06:09:21.477Z,8.11
2023-01-19T06:11:50.862Z,8.13
2023-01-19T06:14:20.257Z,8.15
2023-01-19T06:16:49.576Z,8.19
2023-01-19T06:19:18.810Z,8.22
2023-01-19T06:21:52.517Z,8.23
2023-01-19T06:24:22.235Z,8.24
2023-01-19T06:26:51.685Z,8.24
2023-01-19T06:29:20.673Z,8.25
2023-01-19T06:31:50.003Z,8.26
2023-01-19T06:34:20.201Z,8.29
2023-01-19T06:36:49.093Z,8.31
2023-01-19T06:39:18.092Z,8.33
2023-01-19T06:41:47.079Z,8.36
2023-01-19T06:44:16.261Z,8.39
2023-01-19T06:46:45.055Z,8.40
2023-01-19T06:49:14.889Z,8.46
2023-01-19T06:51:44.374Z,8.52
2023-01-19T06:54:13.369Z,8.56
2023-01-19T06:56:42.517Z,8.61
2023-01-19T06:59:11.763Z,8.68
2023-01-19T07:01:40.585Z,8.73
2023-01-19T07:04:11.184Z,8.78
2023-01-19T07:06:40.286Z,8.81
2023-01-19T07:09:12.137Z,8.85
2023-01-19T07:11:40.916Z,8.90
2023-01-19T07:14:10.224Z,8.98
2023-01-19T07:16:39.034Z,9.10
2023-01-19T07:19:11.076Z,9.19
2023-01-19T07:21:40.386Z,9.24
2023-01-19T07:24:09.374Z,9.30
2023-01-19T07:26:38.248Z,9.39
2023-01-19T07:29:07.247Z,9.49
2023-01-19T07:31:36.125Z,9.61
2023-01-19T07:34:06.580Z,9.79
2023-01-19T07:36:36.383Z,9.99
2023-01-19T07:39:05.063Z,10.34
2023-01-19T07:41:34.577Z,10.65
2023-01-19T07:44:05.109Z,10.98
2023-01-19T07:46:33.991Z,11.25
2023-01-19T07:49:02.886Z,11.46
2023-01-19T07:51:31.664Z,11.79
2023-01-19T07:54:00.563Z,12.22
2023-01-19T07:56:33.729Z,12.71
2023-01-19T07:59:03.054Z,13.17
2023-01-19T08:01:31.982Z,13.31
2023-01-19T08:04:00.827Z,13.26
2023-01-19T08:06:36.031Z,13.12
2023-01-19T08:09:07.153Z,12.92
2023-01-19T08:11:35.997Z,12.76
2023-01-19T08:14:07.710Z,12.60
2023-01-19T08:16:37.275Z,12.42
2023-01-19T08:19:06.367Z,12.30
2023-01-19T08:21:37.155Z,12.20
2023-01-19T08:24:06.994Z,12.15
2023-01-19T08:26:36.201Z,12.14
2023-01-19T08:29:06.209Z,12.15
2023-01-19T08:31:34.811Z,12.20
2023-01-19T08:34:03.499Z,12.24
2023-01-19T08:36:33.196Z,12.25
2023-01-19T08:39:02.415Z,12.26
2023-01-19T08:41:31.289Z,12.27
2023-01-19T08:43:59.873Z,12.29
2023-01-19T08:46:29.660Z,12.34
2023-01-19T08:48:58.465Z,12.41
2023-01-19T08:51:27.466Z,12.45
2023-01-19T08:53:56.548Z,12.53
2023-01-19T08:56:25.247Z,12.56
2023-01-19T08:59:08.092Z,12.58
2023-01-19T09:01:38.238Z,12.60
2023-01-19T09:04:06.962Z,12.59
2023-01-19T09:06:35.864Z,12.58
2023-01-19T09:09:05.245Z,12.58
2023-01-19T09:11:35.278Z,12.58
2023-01-19T09:14:04.986Z,12.61
2023-01-19T09:16:33.799Z,12.67
2023-01-19T09:19:02.665Z,12.74
2023-01-19T09:21:31.465Z,12.84
2023-01-19T09:24:01.152Z,12.93
2023-01-19T09:26:31.637Z,13.02
2023-01-19T09:29:02.109Z,13.13
2023-01-19T09:31:30.983Z,13.22
2023-01-19T09:34:00.064Z,13.32
2023-01-19T09:36:28.896Z,13.40
2023-01-19T09:38:58.289Z,13.55
2023-01-19T09:41:29.124Z,13.72
2023-01-19T09:44:00.745Z,13.98
2023-01-19T09:46:40.001Z,14.12
2023-01-19T09:49:12.072Z,14.10
2023-01-19T09:51:45.575Z,14.11
2023-01-19T09:54:23.063Z,14.30
2023-01-19T09:56:53.983Z,14.49
2023-01-19T09:59:22.583Z,14.62
2023-01-19T10:02:03.161Z,14.76
2023-01-19T10:04:40.169Z,15.04
2023-01-19T10:07:35.044Z,15.07
2023-01-19T10:10:12.401Z,14.93
2023-01-19T10:12:56.775Z,14.76
2023-01-19T10:16:03.075Z,14.67
2023-01-19T10:18:51.997Z,14.58
2023-01-19T10:21:31.737Z,14.53
2023-01-19T10:24:17.124Z,14.55
2023-01-19T10:26:54.534Z,14.51
2023-01-19T10:29:34.766Z,14.46
2023-01-19T10:32:15.089Z,14.46
2023-01-19T10:34:44.645Z,14.43
2023-01-19T10:37:25.700Z,14.41
2023-01-19T10:39:57.679Z,14.40
2023-01-19T10:42:32.192Z,14.42
2023-01-19T10:45:01.199Z,14.36
2023-01-19T10:47:37.523Z,14.32
2023-01-19T10:50:29.399Z,14.19
2023-01-19T10:53:04.343Z,14.05
2023-01-19T10:55:38.515Z,13.95
2023-01-19T10:58:26.793Z,13.86
2023-01-19T11:00:55.588Z,13.75
2023-01-19T11:03:25.958Z,13.70
2023-01-19T11:05:59.592Z,13.63
2023-01-19T11:08:31.866Z,13.61
2023-01-19T11:11:06.850Z,13.58
2023-01-19T11:13:36.570Z,13.56
2023-01-19T11:16:15.253Z,13.56
2023-01-19T11:18:45.902Z,13.57
2023-01-19T11:21:17.488Z,13.59
2023-01-19T11:23:55.377Z,13.60
2023-01-19T11:26:35.485Z,13.58
2023-01-19T11:29:05.574Z,13.56
2023-01-19T11:31:36.106Z,13.53
2023-01-19T11:34:21.911Z,13.51
2023-01-19T11:37:06.145Z,13.46
2023-01-19T11:39:47.883Z,13.42
2023-01-19T11:42:17.198Z,13.40
2023-01-19T11:45:04.695Z,13.39
2023-01-19T11:47:40.966Z,13.38
2023-01-19T11:50:24.577Z,13.40
2023-01-19T11:52:58.263Z,13.43
2023-01-19T11:55:41.284Z,13.48
2023-01-19T11:58:16.751Z,13.53
2023-01-19T12:00:54.961Z,13.58
2023-01-19T12:03:26.525Z,13.65
2023-01-19T12:06:04.287Z,13.71
2023-01-19T12:08:41.574Z,13.78
2023-01-19T12:11:16.913Z,13.87
2023-01-19T12:13:46.842Z,14.00
2023-01-19T12:16:21.063Z,14.12
2023-01-19T12:19:04.492Z,14.24
2023-01-19T12:21:34.186Z,14.45
2023-01-19T12:24:24.611Z,14.56
2023-01-19T12:27:02.335Z,14.59
2023-01-19T12:29:35.817Z,14.59
2023-01-19T12:32:14.502Z,14.60
2023-01-19T12:34:47.018Z,14.59
2023-01-19T12:37:30.609Z,14.56
2023-01-19T12:40:16.491Z,14.51
2023-01-19T12:42:48.014Z,14.48
2023-01-19T12:45:25.878Z,14.45
2023-01-19T12:47:56.043Z,14.37
2023-01-19T12:50:26.492Z,14.35
2023-01-19T12:53:03.187Z,14.28
2023-01-19T12:55:35.447Z,14.24
2023-01-19T12:58:07.348Z,14.22
2023-01-19T13:00:39.144Z,14.21
2023-01-19T13:03:20.027Z,14.21
2023-01-19T13:05:50.454Z,13.88
2023-01-19T13:11:06.684Z,12.76
2023-01-19T13:13:40.281Z,11.94
2023-01-19T13:16:25.257Z,11.75
2023-01-19T13:18:59.956Z,11.49
2023-01-19T13:21:43.610Z,11.32
2023-01-19T13:24:25.285Z,11.13
2023-01-19T13:27:00.492Z,11.02
2023-01-19T13:29:36.898Z,10.97
2023-01-19T13:32:17.898Z,10.78
2023-01-19T13:34:52.282Z,10.75
2023-01-19T13:37:26.390Z,10.59
2023-01-19T13:39:55.703Z,10.55
2023-01-19T13:42:36.667Z,10.49
2023-01-19T13:45:29.723Z,10.40
2023-01-19T13:48:01.381Z,10.29
2023-01-19T13:50:36.005Z,10.20
2023-01-19T13:53:19.309Z,10.12
2023-01-19T13:55:50.562Z,9.99
2023-01-19T13:58:23.885Z,9.83
2023-01-19T14:00:53.228Z,9.75
2023-01-19T14:03:24.368Z,9.66
2023-01-19T14:05:54.712Z,9.53
2023-01-19T14:08:23.827Z,9.34
2023-01-19T14:10:52.349Z,9.23
2023-01-19T14:13:27.285Z,9.10
2023-01-19T14:15:58.953Z,9.03
2023-01-19T14:18:35.747Z,8.98
2023-01-19T14:21:15.304Z,8.95
2023-01-19T14:23:49.881Z,8.94
2023-01-19T14:26:44.030Z,8.87
2023-01-19T14:29:24.799Z,8.87
2023-01-19T14:32:12.955Z,8.83
2023-01-19T14:34:45.121Z,8.81
2023-01-19T14:37:23.837Z,8.81
2023-01-19T14:40:08.400Z,8.80
2023-01-19T14:42:42.906Z,8.76
2023-01-19T14:45:22.873Z,8.73
2023-01-19T14:47:56.979Z,8.69
2023-01-19T14:50:33.848Z,8.63
2023-01-19T14:53:25.825Z,8.63
2023-01-19T14:55:56.413Z,8.59
2023-01-19T14:58:27.481Z,8.54
2023-01-19T15:00:56.461Z,8.51
2023-01-19T15:03:42.692Z,8.51
2023-01-19T15:06:21.464Z,8.47
2023-01-19T15:08:50.658Z,8.47
2023-01-19T15:11:22.111Z,8.45
2023-01-19T15:13:51.484Z,8.37
2023-01-19T15:16:20.464Z,8.28
2023-01-19T15:18:49.188Z,8.21
2023-01-19T15:21:29.134Z,8.18
2023-01-19T15:23:58.948Z,8.16
2023-01-19T15:26:27.905Z,8.16
2023-01-19T15:28:56.773Z,8.14
2023-01-19T15:31:26.675Z,8.11
2023-01-19T15:33:55.536Z,8.09
2023-01-19T15:36:25.532Z,8.10
2023-01-19T15:38:54.109Z,8.11
2023-01-19T15:41:23.516Z,8.12
2023-01-19T15:43:52.600Z,8.13
2023-01-19T15:46:22.595Z,8.14
2023-01-19T15:48:52.420Z,8.14
2023-01-19T15:51:23.413Z,8.12
2023-01-19T15:53:52.873Z,8.11
2023-01-19T15:56:29.817Z,8.12
2023-01-19T15:58:59.964Z,8.09
2023-01-19T16:01:33.192Z,8.07
2023-01-19T16:04:04.873Z,8.12
2023-01-19T16:06:33.842Z,8.14
2023-01-19T16:09:04.175Z,8.09
2023-01-19T16:11:34.814Z,8.08
2023-01-19T16:14:03.600Z,8.01
2023-01-19T16:16:32.178Z,7.94
2023-01-19T16:19:00.726Z,7.86
2023-01-19T16:21:29.476Z,7.84
2023-01-19T16:23:57.962Z,7.78
2023-01-19T16:26:30.639Z,7.74
2023-01-19T16:29:02.478Z,7.68
2023-01-19T16:31:31.126Z,7.66
2023-01-19T16:33:59.726Z,7.62
2023-01-19T16:36:31.255Z,7.67
2023-01-19T16:39:02.019Z,7.60
2023-01-19T16:41:30.803Z,7.56
2023-01-19T16:44:00.974Z,7.51
2023-01-19T16:46:30.645Z,7.46
2023-01-19T16:49:01.366Z,7.44
2023-01-19T16:51:30.149Z,7.37
2023-01-19T16:53:59.553Z,7.29
2023-01-19T16:56:28.143Z,7.20
2023-01-19T16:58:58.054Z,7.11
2023-01-19T17:01:28.586Z,7.06
2023-01-19T17:03:57.119Z,7.01
2023-01-19T17:06:26.060Z,6.98
2023-01-19T17:08:54.645Z,6.96
2023-01-19T17:11:25.681Z,6.95
2023-01-19T17:13:57.046Z,6.93
2023-01-19T17:16:26.079Z,6.89
2023-01-19T17:18:57.438Z,6.83
2023-01-19T17:21:26.050Z,6.76
2023-01-19T17:23:56.444Z,6.69
2023-01-19T17:26:26.304Z,6.64
2023-01-19T17:29:06.372Z,6.61
2023-01-19T17:31:35.098Z,6.59
2023-01-19T17:34:04.125Z,6.58
2023-01-19T17:36:33.499Z,6.58
2023-01-19T17:39:07.234Z,6.58
2023-01-19T17:41:36.237Z,6.61
2023-01-19T17:44:06.025Z,6.68
2023-01-19T17:46:39.247Z,6.72
2023-01-19T17:49:08.495Z,6.72
2023-01-19T17:51:37.715Z,6.74
2023-01-19T17:54:06.272Z,6.79
2023-01-19T17:56:37.768Z,6.83
2023-01-19T17:59:08.330Z,6.87
2023-01-19T18:01:41.316Z,6.93
2023-01-19T18:04:10.063Z,6.97
2023-01-19T18:06:39.297Z,7.03
2023-01-19T18:09:08.451Z,7.07
2023-01-19T18:11:37.089Z,7.10
2023-01-19T18:14:06.909Z,7.11
2023-01-19T18:16:36.150Z,7.10
2023-01-19T18:19:04.664Z,7.07
2023-01-19T18:21:33.245Z,7.04
2023-01-19T18:24:05.076Z,7.01
2023-01-19T18:26:35.227Z,6.99
2023-01-19T18:29:04.296Z,6.95
2023-01-19T18:31:32.871Z,6.94
2023-01-19T18:34:01.663Z,6.92
2023-01-19T18:36:32.795Z,6.95
2023-01-19T18:39:01.853Z,6.98
2023-01-19T18:41:31.033Z,7.00
2023-01-19T18:44:00.110Z,7.01
2023-01-19T18:46:28.827Z,7.00
2023-01-19T18:48:57.316Z,6.99
2023-01-19T18:51:25.799Z,6.97
2023-01-19T18:53:54.746Z,6.95
2023-01-19T18:56:23.406Z,6.92
2023-01-19T18:58:55.257Z,6.90
2023-01-19T19:01:27.422Z,6.85
2023-01-19T19:03:57.256Z,6.82
2023-01-19T19:06:27.675Z,6.80
2023-01-19T19:08:59.377Z,6.80
2023-01-19T19:11:28.129Z,6.81
2023-01-19T19:14:00.410Z,6.81
2023-01-19T19:16:30.101Z,6.77
2023-01-19T19:18:59.513Z,6.73
2023-01-19T19:21:28.325Z,6.67
2023-01-19T19:23:58.423Z,6.61
2023-01-19T19:26:31.496Z,6.59
2023-01-19T19:29:01.148Z,6.60
2023-01-19T19:31:30.434Z,6.65
2023-01-19T19:33:59.970Z,6.68
2023-01-19T19:36:29.300Z,6.69
2023-01-19T19:38:59.849Z,6.69
2023-01-19T19:41:29.435Z,6.71
2023-01-19T19:43:58.638Z,6.79
2023-01-19T19:46:27.974Z,6.90
2023-01-19T19:48:56.465Z,6.92
2023-01-19T19:51:27.649Z,6.95
2023-01-19T19:53:59.003Z,7.02
2023-01-19T19:56:30.063Z,7.05
2023-01-19T19:58:59.973Z,7.02
2023-01-19T20:01:32.917Z,6.99
2023-01-19T20:04:09.367Z,6.90
2023-01-19T20:06:45.139Z,6.81
2023-01-19T20:09:16.001Z,6.71
2023-01-19T20:11:46.997Z,6.62
2023-01-19T20:14:18.464Z,6.54
2023-01-19T20:16:47.209Z,6.47
2023-01-19T20:19:15.791Z,6.42
2023-01-19T20:21:44.611Z,6.35
2023-01-19T20:24:18.697Z,6.31
2023-01-19T20:26:50.663Z,6.25
2023-01-19T20:29:20.864Z,6.20
2023-01-19T20:31:51.387Z,6.16
2023-01-19T20:34:22.968Z,6.12
2023-01-19T20:36:53.845Z,6.12
2023-01-19T20:39:24.449Z,6.10
2023-01-19T20:41:53.395Z,6.08
2023-01-19T20:44:24.439Z,6.08
2023-01-19T20:46:54.557Z,6.06
2023-01-19T20:49:23.475Z,6.04
2023-01-19T20:51:52.340Z,6.00
2023-01-19T20:54:24.770Z,5.97
2023-01-19T20:56:53.499Z,5.95
2023-01-19T20:59:22.756Z,5.93
2023-01-19T21:01:52.172Z,5.90
2023-01-19T21:04:20.729Z,5.87
2023-01-19T21:06:49.717Z,5.83
2023-01-19T21:09:18.763Z,5.80
2023-01-19T21:11:47.256Z,5.77
2023-01-19T21:14:16.044Z,5.76
2023-01-19T21:16:44.765Z,5.75
2023-01-19T21:19:13.436Z,5.77
2023-01-19T21:21:42.113Z,5.78
2023-01-19T21:24:11.727Z,5.79
2023-01-19T21:26:42.571Z,5.82
2023-01-19T21:29:13.573Z,5.84
2023-01-19T21:31:43.066Z,5.86
2023-01-19T21:34:11.975Z,5.88
2023-01-19T21:36:40.867Z,5.91
2023-01-19T21:39:09.878Z,5.94
2023-01-19T21:41:40.196Z,5.95
2023-01-19T21:44:11.539Z,5.97
2023-01-19T21:46:40.969Z,5.99
2023-01-19T21:49:17.469Z,5.99
2023-01-19T21:51:47.996Z,5.99
2023-01-19T21:54:17.216Z,5.99
2023-01-19T21:56:45.825Z,5.97
2023-01-19T21:59:15.650Z,5.96
2023-01-19T22:01:46.295Z,5.93
2023-01-19T22:04:15.040Z,5.89
2023-01-19T22:06:44.370Z,5.86
2023-01-19T22:09:13.359Z,5.86
2023-01-19T22:11:41.907Z,5.86
2023-01-19T22:14:11.730Z,5.85
2023-01-19T22:16:40.455Z,5.84
2023-01-19T22:19:14.349Z,5.83
2023-01-19T22:21:43.101Z,5.81
2023-01-19T22:24:13.128Z,5.82
2023-01-19T22:26:41.733Z,5.82
2023-01-19T22:29:12.130Z,5.83
2023-01-19T22:31:41.235Z,5.83
2023-01-19T22:34:11.315Z,5.81
2023-01-19T22:36:39.935Z,5.78
2023-01-19T22:39:11.432Z,5.74
2023-01-19T22:41:45.608Z,5.72
2023-01-19T22:44:21.350Z,5.70
2023-01-19T22:46:54.012Z,5.66
2023-01-19T22:49:23.347Z,5.65
2023-01-19T22:51:54.303Z,5.65
2023-01-19T22:54:23.573Z,5.67
2023-01-19T22:56:52.535Z,5.68
2023-01-19T22:59:21.732Z,5.69
2023-01-19T23:01:50.428Z,5.70
2023-01-19T23:04:20.055Z,5.70
2023-01-19T23:06:51.264Z,5.69
2023-01-19T23:09:20.447Z,5.68
2023-01-19T23:11:51.843Z,5.67
2023-01-19T23:14:22.374Z,5.67
2023-01-19T23:16:51.130Z,5.69
2023-01-19T23:19:20.405Z,5.69
2023-01-19T23:21:52.729Z,5.70
2023-01-19T23:24:21.621Z,5.71
2023-01-19T23:26:51.548Z,5.72
2023-01-19T23:29:20.541Z,5.73
2023-01-19T23:31:50.622Z,5.72
2023-01-19T23:34:19.544Z,5.67
2023-01-19T23:36:49.173Z,5.59
2023-01-19T23:39:21.051Z,5.55
2023-01-19T23:41:51.000Z,5.53
2023-01-19T23:44:20.129Z,5.52
2023-01-19T23:46:49.403Z,5.50
2023-01-19T23:49:18.505Z,5.48
2023-01-19T23:51:47.926Z,5.48
2023-01-19T23:54:16.754Z,5.50
2023-01-19T23:56:46.097Z,5.51
2023-01-19T23:59:16.904Z,5.53
